Ashland, Oregon
Current Conditions -  °F | °C
As of 10:53 PM on Tuesday 21 Oct 2014 (Local Time) from KMFR Reporting Station
Overcast Overcast  
Wind Chill: 54°   Ceiling: 9000
Heat Index: 54°   Visibility: 10mi
Dew Point: 49°   Wind: 3mph
Humidity: 83%   Direction: 360°N
Pressure: 29.99"   Gusts: NA
Location:  42.2°N, 122.71°W
Report Text: KMFR 220553Z AUTO 36003KT 10SM SCT070 OVC090 12/09 A2999 RMK AO2 RAE43 SLP155 P0000 60000 T01220094 10178 20117 58001
Loading
Personal Weather Stations






























Interactive Weather Map
Tropical Storm Tracking
New forecast layout! Learn more

10-Day Weather Forecast

Advertisements
Track Severe Weather on mobile